LIRFLIRA

Guest
Details From LIRF - Roma Fiumicino Leonardo Da Vinci
To LIRA - Ciampino
Flight Number -
Tags Routegen Generated
Created
Modified
Stats Distance 26 nm / 47 km
Max Altitude 100 ft / 30 m
Waypoints 5
Social Downloads 5
Likes 0
Share VATSIM

Download

Looking for another format? Having issues loading an existing format? Contact us
Advertisement - Login to hide

Notes

Departing runway 16 LIRF. Arriving runway 15 LIRA.

Route

LIRF +41.71_+012.27 +41.72_+012.46 +41.73_+012.65 LIRA

ID Type Via Altitude Latitude Longitude Leg Dist Tot Dist Heading (true) Name
O LIRF APT - 0 ft / 0 m 41.78198˚ 12.24041˚ - 0 nm - -
+41.71_+012.27 LATLON - 100 ft / 30 m 41.71289˚ 12.26928˚ 4 nm 4 nm 163° / 163° -
+41.72_+012.46 LATLON - 100 ft / 30 m 41.71946˚ 12.45731˚ 8 nm 12 nm 87° / 87° -
+41.73_+012.65 LATLON - 100 ft / 30 m 41.72603˚ 12.64533˚ 8 nm 21 nm 87° / 87° -
O LIRA APT - 0 ft / 0 m 41.79040˚ 12.60101˚ 4 nm 25 nm 333° / 333° -

Altitude Profile

Advertisement - Login to hide

LIRF

Details ICAO LIRF (FCO)
Name Roma Fiumicino Leonardo Da Vinci
Region Italy
Timezone Europe/Rome (UTC+2.0)
Stats Elevation 15 ft / 5 m (AMSL)
Location 41.810809° 12.250897°
Runways 3
Magnetic Variation 3.042° E

METAR

LIRF 251620Z 28009KT CAVOK 22/17 Q1015 NOSIG

Decode

TAF

TAF LIRF 251100Z 2512/2618 28013KT CAVOK BECMG 2518/2520 VRB04KT TEMPO 2601/2605 3000 BR BECMG 2608/2610 27012KT

Decode

Departure Runways

ID Width Length Bearing (true) Bearing (mag) Surface Threshold Offset Overrun Length
07 148 ft / 45 m 10,835 ft / 3,302 m 69.67° 66.63° Asphalt 1,365 ft / 416 m 0 ft / 0 m
16L 197 ft / 60 m 12,832 ft / 3,911 m 162.67° 159.63° Asphalt 0 ft / 0 m 0 ft / 0 m
16R 197 ft / 60 m 12,822 ft / 3,908 m 162.66° 159.62° Asphalt 0 ft / 0 m 0 ft / 0 m
25 148 ft / 45 m 10,835 ft / 3,302 m 249.70° 246.66° Asphalt 0 ft / 0 m 0 ft / 0 m
34L 197 ft / 60 m 12,822 ft / 3,908 m 342.67° 339.63° Asphalt 1,053 ft / 321 m 0 ft / 0 m
34R 197 ft / 60 m 12,832 ft / 3,911 m 342.68° 339.64° Asphalt 0 ft / 0 m 0 ft / 0 m

LIRA

Details ICAO LIRA (CIA)
Name CIAMPINO
Region Italy
Timezone Europe/Rome (UTC+2.0)
Stats Elevation 427 ft / 130 m (AMSL)
Location 41.799228° 12.594917°
Runways 1
Magnetic Variation 3.104° E

METAR

LIRA 251620Z 25006KT 200V280 9999 FEW030 25/14 Q1015

Decode

TAF

TAF LIRA 251100Z 2512/2612 VRB05KT 9999 SCT025 TEMPO 2512/2518 4000 SHRA TEMPO 2601/2605 3000 BR

Decode

Destination Runways

ID Width Length Bearing (true) Bearing (mag) Surface Threshold Offset Overrun Length
15 154 ft / 47 m 7,246 ft / 2,209 m 152.79° 149.69° Asphalt 0 ft / 0 m 0 ft / 0 m
33 154 ft / 47 m 7,246 ft / 2,209 m 332.80° 329.70° Asphalt 0 ft / 0 m 0 ft / 0 m

Approach Navaids

Runway Type Ident Frequency Range Bearing (true) Bearing (mag) Slope Elevation
15 Localiser CIA 109.90 MHz 18 nm / 33 km 152.81° 149.71° - 426 ft / 130 m (AMSL)
15 Glidescope CIA 109.90 MHz 10 nm / 19 km 152.79° 149.69° 3.00° 384 ft / 117 m (AMSL)

Popular Alternatives